createdAt,value
2022-08-28T00:00:55.748Z,13.07
2022-08-28T00:02:59.235Z,12.88
2022-08-28T00:05:02.025Z,12.57
2022-08-28T00:07:06.240Z,13.57
2022-08-28T00:09:08.803Z,11.63
2022-08-28T00:11:14.214Z,12.65
2022-08-28T00:13:20.754Z,12.32
2022-08-28T00:15:30.525Z,12.00
2022-08-28T00:17:33.535Z,11.65
2022-08-28T00:19:38.621Z,12.18
2022-08-28T00:21:41.831Z,11.70
2022-08-28T00:23:44.448Z,11.50
2022-08-28T00:25:47.444Z,12.27
2022-08-28T00:27:55.178Z,11.32
2022-08-28T00:29:58.141Z,11.77
2022-08-28T00:32:00.954Z,12.40
2022-08-28T00:34:03.781Z,11.07
2022-08-28T00:36:09.629Z,12.10
2022-08-28T00:38:13.806Z,12.02
2022-08-28T00:40:28.684Z,11.95
2022-08-28T00:42:36.581Z,12.88
2022-08-28T00:44:39.179Z,12.18
2022-08-28T00:46:45.371Z,11.95
2022-08-28T00:48:48.997Z,11.60
2022-08-28T00:51:10.339Z,11.48
2022-08-28T00:53:12.914Z,11.35
2022-08-28T00:55:22.553Z,12.57
2022-08-28T00:57:51.816Z,12.23
2022-08-28T00:59:54.510Z,11.82
2022-08-28T01:01:59.089Z,12.18
2022-08-28T01:04:06.242Z,11.88
2022-08-28T01:06:09.645Z,12.10
2022-08-28T01:08:13.000Z,11.85
2022-08-28T01:10:20.739Z,11.13
2022-08-28T01:12:29.855Z,12.15
2022-08-28T01:14:34.394Z,12.43
2022-08-28T01:16:37.691Z,11.93
2022-08-28T01:18:42.265Z,12.43
2022-08-28T01:20:59.345Z,12.82
2022-08-28T01:23:43.344Z,12.35
2022-08-28T01:25:46.208Z,12.05
2022-08-28T01:27:48.814Z,12.32
2022-08-28T01:29:51.477Z,11.48
2022-08-28T01:31:54.557Z,12.30
2022-08-28T01:33:59.378Z,10.68
2022-08-28T01:36:02.513Z,11.98
2022-08-28T01:38:05.168Z,11.30
2022-08-28T01:40:10.120Z,11.70
2022-08-28T01:42:14.148Z,12.35
2022-08-28T01:44:18.339Z,11.68
2022-08-28T01:46:21.135Z,11.95
2022-08-28T01:48:26.399Z,12.07
2022-08-28T01:50:29.053Z,11.95
2022-08-28T01:52:31.716Z,11.75
2022-08-28T01:54:34.222Z,12.05
2022-08-28T01:56:40.050Z,11.50
2022-08-28T01:58:43.123Z,11.60
2022-08-28T02:00:45.901Z,12.00
2022-08-28T02:02:51.739Z,11.95
2022-08-28T02:04:54.326Z,11.68
2022-08-28T02:06:56.899Z,12.23
2022-08-28T02:08:59.763Z,12.30
2022-08-28T02:11:03.184Z,12.50
2022-08-28T02:13:07.933Z,13.15
2022-08-28T02:15:12.660Z,13.88
2022-08-28T02:17:15.258Z,12.60
2022-08-28T02:19:17.985Z,12.68
2022-08-28T02:21:21.074Z,11.75
2022-08-28T02:23:23.704Z,11.13
2022-08-28T02:25:28.209Z,12.75
2022-08-28T02:27:31.229Z,13.32
2022-08-28T02:29:33.821Z,11.63
2022-08-28T02:31:36.515Z,13.20
2022-08-28T02:33:41.439Z,13.48
2022-08-28T02:35:44.211Z,12.65
2022-08-28T02:37:47.633Z,12.63
2022-08-28T02:39:51.522Z,11.48
2022-08-28T02:41:54.300Z,12.77
2022-08-28T02:43:57.430Z,12.90
2022-08-28T02:46:00.242Z,11.77
2022-08-28T02:48:03.166Z,12.13
2022-08-28T02:50:07.560Z,11.55
2022-08-28T02:52:10.484Z,12.68
2022-08-28T02:54:13.138Z,13.05
2022-08-28T02:56:17.368Z,12.65
2022-08-28T02:58:19.992Z,13.27
2022-08-28T03:00:26.101Z,11.70
2022-08-28T03:02:28.716Z,11.77
2022-08-28T03:04:31.790Z,13.77
2022-08-28T03:06:34.574Z,12.00
2022-08-28T03:08:37.736Z,13.98
2022-08-28T03:10:40.296Z,13.48
2022-08-28T03:12:42.850Z,12.77
2022-08-28T03:14:45.506Z,12.82
2022-08-28T03:16:48.881Z,11.77
2022-08-28T03:18:52.001Z,13.38
2022-08-28T03:20:56.092Z,13.43
2022-08-28T03:23:17.411Z,13.43
2022-08-28T03:27:22.750Z,12.38
2022-08-28T03:29:25.352Z,13.95
2022-08-28T03:31:30.403Z,13.85
2022-08-28T03:33:33.947Z,14.45
2022-08-28T03:35:37.756Z,15.00
2022-08-28T03:37:40.628Z,14.07
2022-08-28T03:39:43.194Z,13.45
2022-08-28T03:41:45.786Z,13.05
2022-08-28T03:43:48.434Z,13.07
2022-08-28T03:46:18.363Z,14.23
2022-08-28T03:48:21.312Z,14.20
2022-08-28T03:50:23.891Z,12.98
2022-08-28T03:52:27.379Z,13.80
2022-08-28T03:54:31.926Z,13.40
2022-08-28T03:56:34.570Z,13.48
2022-08-28T03:58:37.878Z,13.23
2022-08-28T04:00:40.669Z,13.45
2022-08-28T04:02:44.850Z,12.93
2022-08-28T04:04:49.839Z,12.88
2022-08-28T04:06:52.435Z,14.45
2022-08-28T04:08:55.621Z,14.23
2022-08-28T04:11:03.241Z,12.63
2022-08-28T04:13:05.802Z,12.00
2022-08-28T04:15:09.168Z,11.75
2022-08-28T04:17:12.035Z,12.05
2022-08-28T04:19:14.862Z,12.13
2022-08-28T04:21:21.276Z,12.45
2022-08-28T04:23:23.935Z,12.80
2022-08-28T04:25:27.098Z,11.32
2022-08-28T04:27:29.722Z,12.38
2022-08-28T04:29:32.317Z,12.18
2022-08-28T04:31:35.720Z,11.05
2022-08-28T04:33:38.785Z,12.32
2022-08-28T04:35:42.214Z,11.60
2022-08-28T04:37:44.854Z,11.27
2022-08-28T04:39:47.443Z,12.85
2022-08-28T04:41:50.444Z,13.13
2022-08-28T04:43:53.355Z,11.45
2022-08-28T04:45:56.835Z,12.88
2022-08-28T04:48:00.187Z,12.70
2022-08-28T04:50:15.722Z,11.63
2022-08-28T04:52:18.339Z,12.02
2022-08-28T04:54:21.576Z,11.48
2022-08-28T04:56:24.338Z,11.32
2022-08-28T04:58:28.067Z,11.90
2022-08-28T05:00:30.631Z,11.88
2022-08-28T05:02:33.328Z,11.13
2022-08-28T05:04:35.963Z,12.10
2022-08-28T05:06:46.423Z,12.82
2022-08-28T05:08:49.207Z,11.90
2022-08-28T05:10:52.449Z,11.82
2022-08-28T05:12:55.090Z,10.85
2022-08-28T05:14:57.716Z,11.65
2022-08-28T05:17:01.321Z,11.25
2022-08-28T05:19:04.029Z,11.48
2022-08-28T05:21:14.565Z,11.05
2022-08-28T05:23:17.500Z,12.15
2022-08-28T05:25:20.262Z,14.00
2022-08-28T05:27:24.676Z,11.38
2022-08-28T05:29:27.531Z,10.80
2022-08-28T05:31:31.590Z,11.60
2022-08-28T05:33:34.306Z,11.55
2022-08-28T05:35:38.859Z,9.68
2022-08-28T05:37:41.546Z,12.50
2022-08-28T05:39:44.837Z,10.40
2022-08-28T05:41:47.595Z,12.40
2022-08-28T05:43:50.467Z,11.18
2022-08-28T05:46:00.707Z,11.85
2022-08-28T05:48:04.236Z,10.75
2022-08-28T05:50:08.749Z,12.02
2022-08-28T05:52:11.330Z,11.35
2022-08-28T05:54:15.774Z,11.40
2022-08-28T05:56:24.671Z,11.15
2022-08-28T05:58:29.908Z,12.15
2022-08-28T06:00:33.101Z,11.02
2022-08-28T06:02:35.798Z,12.30
2022-08-28T06:04:40.646Z,10.88
2022-08-28T06:06:45.173Z,11.43
2022-08-28T06:08:58.436Z,11.57
2022-08-28T06:11:02.393Z,12.20
2022-08-28T06:13:05.670Z,10.98
2022-08-28T06:15:09.667Z,11.75
2022-08-28T06:17:12.348Z,11.05
2022-08-28T06:19:15.678Z,11.45
2022-08-28T06:21:18.298Z,11.82
2022-08-28T06:23:24.228Z,11.23
2022-08-28T06:25:26.968Z,11.65
2022-08-28T06:27:31.348Z,10.82
2022-08-28T06:29:34.068Z,11.88
2022-08-28T06:31:37.514Z,11.73
2022-08-28T06:33:40.394Z,10.15
2022-08-28T06:35:52.410Z,10.52
2022-08-28T06:37:54.988Z,10.57
2022-08-28T06:39:57.607Z,11.25
2022-08-28T06:42:00.336Z,11.38
2022-08-28T06:44:03.995Z,10.80
2022-08-28T06:46:07.405Z,10.25
2022-08-28T06:48:12.326Z,10.50
2022-08-28T06:50:14.994Z,10.68
2022-08-28T06:52:17.633Z,9.68
2022-08-28T06:54:23.287Z,9.02
2022-08-28T06:56:27.136Z,9.80
2022-08-28T06:58:30.528Z,10.93
2022-08-28T07:00:35.690Z,9.98
2022-08-28T07:02:38.369Z,9.75
2022-08-28T07:04:41.263Z,10.35
2022-08-28T07:06:54.771Z,10.88
2022-08-28T07:08:57.765Z,10.57
2022-08-28T07:11:09.422Z,10.50
2022-08-28T07:13:12.087Z,11.65
2022-08-28T07:15:14.710Z,9.95
2022-08-28T07:17:17.625Z,9.65
2022-08-28T07:19:20.331Z,10.80
2022-08-28T07:21:22.999Z,10.18
2022-08-28T07:23:26.230Z,10.27
2022-08-28T07:25:29.492Z,9.85
2022-08-28T07:27:32.338Z,10.00
2022-08-28T07:29:35.604Z,10.30
2022-08-28T07:31:41.169Z,9.65
2022-08-28T07:33:44.178Z,10.85
2022-08-28T07:35:47.302Z,9.70
2022-08-28T07:37:49.990Z,10.20
2022-08-28T07:39:52.760Z,10.23
2022-08-28T07:41:55.506Z,10.70
2022-08-28T07:44:18.011Z,9.73
2022-08-28T07:46:20.866Z,9.27
2022-08-28T07:48:23.604Z,9.98
2022-08-28T07:50:26.232Z,9.05
2022-08-28T07:52:29.631Z,8.23
2022-08-28T07:54:32.398Z,8.70
2022-08-28T07:56:40.789Z,8.38
2022-08-28T07:58:43.685Z,9.02
2022-08-28T08:00:46.553Z,9.07
2022-08-28T08:02:49.238Z,9.52
2022-08-28T08:04:52.481Z,9.38
2022-08-28T08:06:58.063Z,10.32
2022-08-28T08:09:01.073Z,9.27
2022-08-28T08:11:18.317Z,9.05
2022-08-28T08:13:20.884Z,9.63
2022-08-28T08:15:23.584Z,8.27
2022-08-28T08:17:45.349Z,8.50
2022-08-28T08:19:48.746Z,10.27
2022-08-28T08:21:54.861Z,8.45
2022-08-28T08:23:59.366Z,8.70
2022-08-28T08:26:05.552Z,8.38
2022-08-28T08:28:08.709Z,8.32
2022-08-28T08:30:12.818Z,8.10
2022-08-28T08:32:15.523Z,7.70
2022-08-28T08:34:18.204Z,8.73
2022-08-28T08:36:22.994Z,8.48
2022-08-28T08:38:25.666Z,7.25
2022-08-28T08:40:28.588Z,8.32
2022-08-28T08:42:34.139Z,8.57
2022-08-28T08:44:41.774Z,8.25
2022-08-28T08:47:10.667Z,7.90
2022-08-28T08:49:20.252Z,8.95
2022-08-28T08:51:41.069Z,8.20
2022-08-28T08:54:05.522Z,7.68
2022-08-28T08:56:12.422Z,7.47
2022-08-28T08:58:36.977Z,7.28
2022-08-28T09:01:16.992Z,7.20
2022-08-28T09:03:43.519Z,7.88
2022-08-28T09:05:55.529Z,8.10
2022-08-28T09:08:02.838Z,7.80
2022-08-28T09:10:15.825Z,8.02
2022-08-28T09:12:23.380Z,7.88
2022-08-28T09:14:37.882Z,7.40
2022-08-28T09:16:44.047Z,7.45
2022-08-28T09:18:48.930Z,8.10
2022-08-28T09:20:54.825Z,7.95
2022-08-28T09:22:57.507Z,8.20
2022-08-28T09:25:01.060Z,7.70
2022-08-28T09:27:13.742Z,7.90
2022-08-28T09:29:19.081Z,8.32
2022-08-28T09:31:38.224Z,7.97
2022-08-28T09:33:46.934Z,7.57
2022-08-28T09:35:49.977Z,7.97
2022-08-28T09:37:52.897Z,7.20
2022-08-28T09:40:21.869Z,7.65
2022-08-28T09:42:43.143Z,8.52
2022-08-28T09:45:09.410Z,7.72
2022-08-28T09:47:34.863Z,7.32
2022-08-28T09:49:37.544Z,7.30
2022-08-28T09:51:42.239Z,7.85
2022-08-28T09:53:54.685Z,7.18
2022-08-28T09:56:13.459Z,7.45
2022-08-28T09:58:16.135Z,7.68
2022-08-28T10:00:18.859Z,8.00
2022-08-28T10:02:31.882Z,8.40
2022-08-28T10:04:46.433Z,8.23
2022-08-28T10:07:07.609Z,8.23
2022-08-28T10:09:33.384Z,7.18
2022-08-28T10:11:44.824Z,7.72
2022-08-28T10:14:03.853Z,8.45
2022-08-28T10:16:26.337Z,8.38
2022-08-28T10:18:29.029Z,8.68
2022-08-28T10:20:54.946Z,8.18
2022-08-28T10:23:06.288Z,8.35
2022-08-28T10:25:30.471Z,9.52
2022-08-28T10:27:48.666Z,8.75
2022-08-28T10:30:21.846Z,8.48
2022-08-28T10:33:00.153Z,9.15
2022-08-28T10:35:23.118Z,7.65
2022-08-28T10:37:45.286Z,7.65
2022-08-28T10:39:51.843Z,9.15
2022-08-28T10:42:03.297Z,8.20
2022-08-28T10:44:07.862Z,9.00
2022-08-28T10:46:15.297Z,8.20
2022-08-28T10:48:42.511Z,7.90
2022-08-28T10:50:53.574Z,8.32
2022-08-28T10:53:05.702Z,9.18
2022-08-28T10:55:17.306Z,8.48
2022-08-28T10:57:25.003Z,8.63
2022-08-28T10:59:30.623Z,8.18
2022-08-28T11:01:40.302Z,8.20
2022-08-28T11:03:49.841Z,8.77
2022-08-28T11:05:57.913Z,7.75
2022-08-28T11:08:08.892Z,7.65
2022-08-28T11:10:26.889Z,9.15
2022-08-28T11:12:37.655Z,9.32
2022-08-28T11:14:48.381Z,8.00
2022-08-28T11:16:53.170Z,9.10
2022-08-28T11:19:14.601Z,8.50
2022-08-28T11:21:50.246Z,9.15
2022-08-28T11:24:05.636Z,8.32
2022-08-28T11:26:13.179Z,9.43
2022-08-28T11:28:45.316Z,9.82
2022-08-28T11:30:59.479Z,10.18
2022-08-28T11:33:45.883Z,9.52
2022-08-28T11:35:51.580Z,8.80
2022-08-28T11:37:55.150Z,9.55
2022-08-28T11:40:40.850Z,8.90
2022-08-28T11:42:48.697Z,9.30
2022-08-28T11:44:51.778Z,9.43
2022-08-28T11:46:57.686Z,9.80
2022-08-28T11:49:28.144Z,9.95
2022-08-28T11:51:37.566Z,9.57
2022-08-28T11:53:50.150Z,9.55
2022-08-28T11:56:31.328Z,8.82
2022-08-28T11:59:07.971Z,9.05
2022-08-28T12:01:14.600Z,8.35
2022-08-28T12:03:31.702Z,9.48
2022-08-28T12:05:45.168Z,8.80
2022-08-28T12:07:49.974Z,9.30
2022-08-28T12:09:53.367Z,9.80
2022-08-28T12:11:58.709Z,9.57
2022-08-28T12:14:01.497Z,8.40
2022-08-28T12:16:07.251Z,9.68
2022-08-28T12:18:12.898Z,9.82
2022-08-28T12:20:28.477Z,9.85
2022-08-28T12:22:50.500Z,9.93
2022-08-28T12:24:59.591Z,9.15
2022-08-28T12:27:03.787Z,9.85
2022-08-28T12:29:32.157Z,8.85
2022-08-28T12:31:59.230Z,9.65
2022-08-28T12:34:10.776Z,8.07
2022-08-28T12:36:17.382Z,8.57
2022-08-28T12:38:22.202Z,9.32
2022-08-28T12:40:50.661Z,9.68
2022-08-28T12:42:58.478Z,8.15
2022-08-28T12:45:05.572Z,9.73
2022-08-28T12:47:08.273Z,9.50
2022-08-28T12:49:35.770Z,8.55
2022-08-28T12:51:38.649Z,9.32
2022-08-28T12:53:50.926Z,9.48
2022-08-28T12:55:53.873Z,9.88
2022-08-28T12:57:56.509Z,9.20
2022-08-28T13:00:09.373Z,9.40
2022-08-28T13:02:31.327Z,8.65
2022-08-28T13:04:44.439Z,8.93
2022-08-28T13:06:47.098Z,8.93
2022-08-28T13:08:50.030Z,9.00
2022-08-28T13:10:53.082Z,8.88
2022-08-28T13:13:06.646Z,9.32
2022-08-28T13:15:10.324Z,8.75
2022-08-28T13:17:15.348Z,9.20
2022-08-28T13:19:27.169Z,8.80
2022-08-28T13:21:34.794Z,8.90
2022-08-28T13:23:37.868Z,8.98
2022-08-28T13:25:40.571Z,8.52
2022-08-28T13:27:43.211Z,8.48
2022-08-28T13:30:20.992Z,9.25
2022-08-28T13:32:24.571Z,8.00
2022-08-28T13:34:30.124Z,7.82
2022-08-28T13:36:41.926Z,8.23
2022-08-28T13:38:45.139Z,8.52
2022-08-28T13:41:04.258Z,8.00
2022-08-28T13:43:11.181Z,7.43
2022-08-28T13:45:14.652Z,8.88
2022-08-28T13:47:17.620Z,8.48
2022-08-28T13:49:20.224Z,7.75
2022-08-28T13:51:25.343Z,8.27
2022-08-28T13:53:28.012Z,7.80
2022-08-28T13:55:31.208Z,7.53
2022-08-28T13:57:33.987Z,8.32
2022-08-28T13:59:38.969Z,7.63
2022-08-28T14:02:00.184Z,7.85
2022-08-28T14:04:03.200Z,8.32
2022-08-28T14:06:11.901Z,8.43
2022-08-28T14:08:16.223Z,8.50
2022-08-28T14:10:19.162Z,7.93
2022-08-28T14:12:21.820Z,7.60
2022-08-28T14:14:32.445Z,6.82
2022-08-28T14:16:39.715Z,6.85
2022-08-28T14:18:42.544Z,8.77
2022-08-28T14:20:45.160Z,7.68
2022-08-28T14:22:47.798Z,7.68
2022-08-28T14:24:50.364Z,8.15
2022-08-28T14:26:53.370Z,7.57
2022-08-28T14:28:59.168Z,8.13
2022-08-28T14:31:06.036Z,7.85
2022-08-28T14:33:09.032Z,7.65
2022-08-28T14:35:11.843Z,7.45
2022-08-28T14:37:14.872Z,7.00
2022-08-28T14:39:18.942Z,8.40
2022-08-28T14:41:25.390Z,8.75
2022-08-28T14:43:28.157Z,8.05
2022-08-28T14:45:31.000Z,8.52
2022-08-28T14:47:34.588Z,7.72
2022-08-28T14:49:37.425Z,8.32
2022-08-28T14:51:41.765Z,7.57
2022-08-28T14:53:45.231Z,7.95
2022-08-28T14:55:50.132Z,7.15
2022-08-28T14:57:52.687Z,8.70
2022-08-28T14:59:55.225Z,7.68
2022-08-28T15:02:00.311Z,7.43
2022-08-28T15:04:07.849Z,8.38
2022-08-28T15:06:11.754Z,7.30
2022-08-28T15:08:17.319Z,7.35
2022-08-28T15:10:20.130Z,7.45
2022-08-28T15:12:22.989Z,7.03
2022-08-28T15:14:25.969Z,7.05
2022-08-28T15:16:31.922Z,7.15
2022-08-28T15:18:34.771Z,8.55
2022-08-28T15:20:46.794Z,7.10
2022-08-28T15:22:49.523Z,7.50
2022-08-28T15:24:53.445Z,7.03
2022-08-28T15:26:59.832Z,7.15
2022-08-28T15:29:03.795Z,7.28
2022-08-28T15:31:06.616Z,7.85
2022-08-28T15:33:09.438Z,6.57
2022-08-28T15:35:12.370Z,7.25
2022-08-28T15:37:15.120Z,6.88
2022-08-28T15:39:36.490Z,7.20
2022-08-28T15:41:39.048Z,7.25
2022-08-28T15:43:43.082Z,6.88
2022-08-28T15:45:51.102Z,6.63
2022-08-28T15:47:54.309Z,6.93
2022-08-28T15:49:57.424Z,7.20
2022-08-28T15:52:00.091Z,6.93
2022-08-28T15:54:02.730Z,7.18
2022-08-28T15:56:05.468Z,7.43
2022-08-28T15:58:14.363Z,7.43
2022-08-28T16:00:17.439Z,8.10
2022-08-28T16:02:23.469Z,6.35
2022-08-28T16:04:26.143Z,6.97
2022-08-28T16:06:29.464Z,7.28
2022-08-28T16:08:32.086Z,7.15
2022-08-28T16:10:35.256Z,6.68
2022-08-28T16:12:41.175Z,6.80
2022-08-28T16:14:44.218Z,7.10
2022-08-28T16:16:50.859Z,6.35
2022-08-28T16:18:53.685Z,7.22
2022-08-28T16:20:56.319Z,5.80
2022-08-28T16:23:00.498Z,7.03
2022-08-28T16:25:04.406Z,6.65
2022-08-28T16:27:10.678Z,7.45
2022-08-28T16:29:18.333Z,7.70
2022-08-28T16:31:21.321Z,6.15
2022-08-28T16:33:24.180Z,5.80
2022-08-28T16:35:26.839Z,6.10
2022-08-28T16:37:39.823Z,6.38
2022-08-28T16:39:42.828Z,6.68
2022-08-28T16:41:50.043Z,6.03
2022-08-28T16:43:53.933Z,6.20
2022-08-28T16:45:56.924Z,7.38
2022-08-28T16:48:00.455Z,6.43
2022-08-28T16:50:07.834Z,6.60
2022-08-28T16:52:10.416Z,6.88
2022-08-28T16:54:13.515Z,7.25
2022-08-28T16:56:18.416Z,6.28
2022-08-28T16:58:21.220Z,7.35
2022-08-28T17:00:25.081Z,6.63
2022-08-28T17:02:28.356Z,6.20
2022-08-28T17:04:30.983Z,7.20
2022-08-28T17:06:33.778Z,7.40
2022-08-28T17:08:36.402Z,6.60
2022-08-28T17:10:39.059Z,6.32
2022-08-28T17:12:42.118Z,7.38
2022-08-28T17:14:45.086Z,6.95
2022-08-28T17:16:48.194Z,7.15
2022-08-28T17:18:52.657Z,7.53
2022-08-28T17:21:13.989Z,6.40
2022-08-28T17:25:18.944Z,7.07
2022-08-28T17:27:22.887Z,6.45
2022-08-28T17:29:26.448Z,7.28
2022-08-28T17:31:29.157Z,6.50
2022-08-28T17:33:31.846Z,8.15
2022-08-28T17:35:41.804Z,7.32
2022-08-28T17:37:45.871Z,6.43
2022-08-28T17:39:48.567Z,7.22
2022-08-28T17:41:52.092Z,7.63
2022-08-28T17:43:54.702Z,7.20
2022-08-28T17:45:57.304Z,6.60
2022-08-28T17:48:00.102Z,7.78
2022-08-28T17:50:03.431Z,7.57
2022-08-28T17:52:06.575Z,6.55
2022-08-28T17:54:09.223Z,7.35
2022-08-28T17:56:12.294Z,7.07
2022-08-28T17:58:15.037Z,7.10
2022-08-28T18:00:18.509Z,7.75
2022-08-28T18:02:21.208Z,7.82
2022-08-28T18:04:24.732Z,7.20
2022-08-28T18:06:27.561Z,6.78
2022-08-28T18:08:30.236Z,7.72
2022-08-28T18:10:33.983Z,6.78
2022-08-28T18:12:36.663Z,6.95
2022-08-28T18:14:39.801Z,6.88
2022-08-28T18:16:42.801Z,6.88
2022-08-28T18:18:45.621Z,7.22
2022-08-28T18:20:48.290Z,7.70
2022-08-28T18:22:51.247Z,7.40
2022-08-28T18:24:53.955Z,8.75
2022-08-28T18:26:58.408Z,7.78
2022-08-28T18:29:01.076Z,6.60
2022-08-28T18:31:06.210Z,6.95
2022-08-28T18:33:09.581Z,7.95
2022-08-28T18:35:12.161Z,7.45
2022-08-28T18:37:15.139Z,7.18
2022-08-28T18:39:22.649Z,7.03
2022-08-28T18:41:43.223Z,7.40
2022-08-28T18:43:48.174Z,7.20
2022-08-28T18:45:51.546Z,7.35
2022-08-28T18:47:54.250Z,7.75
2022-08-28T18:49:56.902Z,6.32
2022-08-28T18:51:59.600Z,7.63
2022-08-28T18:54:03.092Z,7.63
2022-08-28T18:56:06.196Z,7.40
2022-08-28T18:58:11.210Z,8.10
2022-08-28T19:00:18.238Z,7.40
2022-08-28T19:02:21.367Z,7.20
2022-08-28T19:04:24.064Z,8.00
2022-08-28T19:06:26.678Z,7.13
2022-08-28T19:08:29.318Z,7.88
2022-08-28T19:10:34.766Z,7.75
2022-08-28T19:12:39.198Z,7.65
2022-08-28T19:14:42.405Z,7.65
2022-08-28T19:16:45.214Z,7.25
2022-08-28T19:18:48.078Z,7.75
2022-08-28T19:21:05.138Z,8.00
2022-08-28T19:23:07.816Z,7.38
2022-08-28T19:25:27.649Z,8.40
2022-08-28T19:29:34.173Z,7.63
2022-08-28T19:31:37.402Z,7.03
2022-08-28T19:33:40.154Z,7.18
2022-08-28T19:35:43.345Z,7.15
2022-08-28T19:38:26.452Z,8.20
2022-08-28T19:41:06.928Z,8.27
2022-08-28T19:43:09.878Z,7.43
2022-08-28T19:45:19.843Z,7.85
2022-08-28T19:47:23.047Z,7.60
2022-08-28T19:49:25.675Z,7.95
2022-08-28T19:51:29.882Z,7.85
2022-08-28T19:53:32.689Z,7.07
2022-08-28T19:55:35.614Z,8.18
2022-08-28T19:57:38.189Z,7.28
2022-08-28T19:59:40.894Z,8.20
2022-08-28T20:01:47.885Z,8.35
2022-08-28T20:03:50.895Z,8.13
2022-08-28T20:05:53.853Z,7.40
2022-08-28T20:07:56.512Z,7.55
2022-08-28T20:10:02.331Z,8.63
2022-08-28T20:12:06.151Z,7.43
2022-08-28T20:14:08.854Z,8.20
2022-08-28T20:16:11.538Z,6.50
2022-08-28T20:18:15.248Z,7.32
2022-08-28T20:20:25.593Z,6.82
2022-08-28T20:22:32.136Z,7.65
2022-08-28T20:24:35.177Z,7.68
2022-08-28T20:26:38.038Z,7.50
2022-08-28T20:28:41.576Z,7.85
2022-08-28T20:30:44.233Z,6.82
2022-08-28T20:32:46.883Z,7.65
2022-08-28T20:34:49.881Z,7.45
2022-08-28T20:36:52.788Z,6.93
2022-08-28T20:38:55.413Z,7.80
2022-08-28T20:41:24.492Z,6.80
2022-08-28T20:43:27.557Z,7.18
2022-08-28T20:45:30.306Z,7.78
2022-08-28T20:47:33.041Z,7.95
2022-08-28T20:49:38.982Z,7.35
2022-08-28T20:51:53.837Z,8.23
2022-08-28T20:53:56.444Z,7.05
2022-08-28T20:56:01.369Z,6.85
2022-08-28T20:58:04.114Z,7.57
2022-08-28T21:00:09.337Z,7.40
2022-08-28T21:02:16.785Z,7.03
2022-08-28T21:04:19.923Z,7.88
2022-08-28T21:06:22.868Z,7.53
2022-08-28T21:08:26.035Z,7.78
2022-08-28T21:10:30.418Z,7.53
2022-08-28T21:12:33.151Z,7.43
2022-08-28T21:14:37.281Z,8.85
2022-08-28T21:16:40.855Z,7.40
2022-08-28T21:19:05.136Z,7.80
2022-08-28T21:21:07.966Z,7.72
2022-08-28T21:23:11.820Z,8.20
2022-08-28T21:25:16.128Z,7.88
2022-08-28T21:27:18.832Z,7.85
2022-08-28T21:29:22.843Z,7.53
2022-08-28T21:31:25.779Z,7.25
2022-08-28T21:33:28.477Z,7.28
2022-08-28T21:35:31.921Z,8.00
2022-08-28T21:37:35.084Z,7.65
2022-08-28T21:39:37.787Z,8.57
2022-08-28T21:41:41.231Z,7.15
2022-08-28T21:43:46.000Z,7.82
2022-08-28T21:46:00.919Z,7.28
2022-08-28T21:48:04.098Z,7.25
2022-08-28T21:50:07.307Z,7.90
2022-08-28T21:52:09.999Z,7.82
2022-08-28T21:54:12.846Z,6.97
2022-08-28T21:56:33.473Z,8.25
2022-08-28T21:58:38.781Z,7.30
2022-08-28T22:00:41.429Z,8.00
2022-08-28T22:02:44.684Z,8.30
2022-08-28T22:04:48.600Z,7.35
2022-08-28T22:06:51.220Z,8.80
2022-08-28T22:08:54.868Z,7.45
2022-08-28T22:10:58.517Z,7.80
2022-08-28T22:13:01.223Z,8.07
2022-08-28T22:15:04.438Z,7.43
2022-08-28T22:17:11.273Z,7.22
2022-08-28T22:19:14.438Z,7.75
2022-08-28T22:21:39.119Z,8.38
2022-08-28T22:23:41.931Z,7.47
2022-08-28T22:25:44.924Z,8.52
2022-08-28T22:27:47.673Z,7.40
2022-08-28T22:29:50.533Z,8.13
2022-08-28T22:31:53.350Z,7.72
2022-08-28T22:33:55.997Z,6.75
2022-08-28T22:35:59.074Z,8.52
2022-08-28T22:38:01.827Z,8.27
2022-08-28T22:40:09.460Z,8.07
2022-08-28T22:42:16.029Z,7.90
2022-08-28T22:44:18.739Z,7.60
2022-08-28T22:46:21.547Z,8.55
2022-08-28T22:48:24.178Z,7.95
2022-08-28T22:50:26.787Z,7.32
2022-08-28T22:52:29.627Z,8.10
2022-08-28T22:54:33.687Z,7.70
2022-08-28T22:56:36.633Z,8.15
2022-08-28T22:58:40.075Z,8.13
2022-08-28T23:00:42.778Z,7.95
2022-08-28T23:02:45.758Z,8.63
2022-08-28T23:04:51.304Z,7.18
2022-08-28T23:06:55.040Z,7.47
2022-08-28T23:08:57.766Z,8.43
2022-08-28T23:11:01.019Z,7.82
2022-08-28T23:13:03.708Z,7.85
2022-08-28T23:15:10.452Z,8.43
2022-08-28T23:17:13.310Z,7.22
2022-08-28T23:19:16.614Z,7.93
2022-08-28T23:21:21.543Z,7.85
2022-08-28T23:23:25.546Z,7.25
2022-08-28T23:25:28.355Z,6.97
2022-08-28T23:27:38.204Z,7.72
2022-08-28T23:29:40.907Z,7.53
2022-08-28T23:31:43.785Z,8.10
2022-08-28T23:33:46.585Z,7.95
2022-08-28T23:35:50.548Z,7.05
2022-08-28T23:37:53.282Z,8.57
2022-08-28T23:39:55.955Z,7.97
2022-08-28T23:41:58.671Z,8.25
2022-08-28T23:44:05.253Z,7.93
2022-08-28T23:46:16.480Z,7.68
2022-08-28T23:48:19.182Z,7.07
2022-08-28T23:50:22.873Z,7.60
2022-08-28T23:52:25.738Z,7.13
2022-08-28T23:54:28.447Z,8.05
2022-08-28T23:56:31.235Z,7.47
2022-08-28T23:58:34.534Z,7.30
